Aérodrome :
LOGIN :

S'inscrire | Disclaimer

   EN    FR    IT 

 










Légende :    VFR   VFR Marginal   IFR   IFR Intensif   IFR Très Intensif
Visi : 
Plafond : 
>= 8 km
>= 3000ft
5 à 8 km
1000 à 3000 ft
1500m à 5 km
500 à 1000 ft
800 à 1500m
200 à 500 ft
< 800m
< 200 ft
Symboles :   Orages  Brouillard  Fortes neiges  Fortes précipitations  Vent > 20 kt
SIGMETs :   Divers  Orages  Givrage  Turbulence  Onde Orograph.  Cendres Volcan.







- Altitude de l'aérodrome : 446 ft
- Code IATA : VNE
- Voir les cartes d'approche


LFRV - Vannes-Meucon

DERNIER METAR :
  • 180630Z AUTO 24004KT 7000 BKN002 BKN230 16/16 Q1016

METARs EXPIRÉS :
  • 180600Z AUTO 25003KT 210V280 9999 BKN005 BKN010 OVC220 16/16 Q1015
  • 180530Z AUTO 27005KT 9000 BKN003 BKN230 16/16 Q1015
  • 180500Z AUTO 26004KT 230V290 8000 OVC003 17/16 Q1015
  • 180430Z AUTO 24004KT 200V270 7000 BKN003 OVC007 17/17 Q1015
  • 180400Z AUTO 26005KT 9000 OVC003 17/17 Q1015

TAF N/A
Pas de NOTAMs connus pour ce terrain.



MET'MAP, la Météo Aéronautique d'un coup d'oeil ! - Copyright ORBIFLY Décembre 2007 - Disclaimer

ORBIFLY MET'MAP TEAM :

Programmation & Développement : Alexandra Zaïnal
Conception & Développement : Baudouin d'Aumeries
Co-Programmation & Développement : Marc-Olivier Méhu
Soutien technique & logistique : Manuel Goepfert

Contact : metmap@orbifly.com




SOURCES & CREDITS :

   NOAA